Time;durP1;ratioP1;P1;durP2;ratioP2;P2;SDS_P1;SDS_P2;PMS_P1;PMS_P2;Temp;Humidity;BMP_temperature;BMP_pressure;BME280_temperature;BME280_humidity;BME280_pressure;Samples;Min_cycle;Max_cycle;Signal;HPM_P1;HPM_P2
2022/08/25 00:01:36;;;;;;;7.57;5.65;;;19.60;75.30;;;18.79;99.51;96157.63;4990595;28;20026;-63
2022/08/25 00:04:04;;;;;;;7.63;5.47;;;19.60;75.40;;;18.76;99.46;96160.75;4988940;28;20029;-63
2022/08/25 00:06:30;;;;;;;6.30;5.68;;;19.60;75.50;;;18.73;99.31;96158.56;4991234;28;20264;-64
2022/08/25 00:08:58;;;;;;;5.93;5.30;;;19.60;75.50;;;18.70;99.33;96156.38;5008450;28;20500;-63
2022/08/25 00:11:25;;;;;;;6.20;5.60;;;19.60;75.60;;;18.69;100.00;96154.75;5024483;28;20072;-64
2022/08/25 00:13:54;;;;;;;6.30;5.70;;;19.60;75.70;;;18.68;100.00;96153.16;5006048;28;20517;-63
2022/08/25 00:16:21;;;;;;;7.07;5.85;;;19.50;75.80;;;18.64;100.00;96152.00;5002279;28;20048;-64
2022/08/25 00:18:52;;;;;;;6.28;5.20;;;19.50;76.00;;;18.61;100.00;96147.13;4986848;28;20045;-63
2022/08/25 00:21:18;;;;;;;6.60;5.88;;;19.50;76.10;;;18.59;100.00;96149.22;4985775;28;20039;-63
2022/08/25 00:23:44;;;;;;;6.32;5.50;;;19.40;76.10;;;18.56;100.00;96145.19;5021443;28;20119;-63
2022/08/25 00:26:10;;;;;;;6.70;6.00;;;19.40;76.20;;;18.54;100.00;96149.91;5004273;28;20049;-63
2022/08/25 00:28:35;;;;;;;7.03;5.80;;;19.40;76.20;;;18.49;100.00;96152.50;5007885;28;20034;-63
2022/08/25 00:31:02;;;;;;;7.30;5.57;;;19.30;76.20;;;18.48;100.00;96158.88;4998299;28;20061;-63
2022/08/25 00:33:30;;;;;;;7.15;6.20;;;19.30;76.20;;;18.47;100.00;96156.44;4973748;28;20034;-63
2022/08/25 00:35:56;;;;;;;6.72;5.75;;;19.30;76.20;;;18.43;100.00;96149.97;4972990;28;20036;-63
2022/08/25 00:38:22;;;;;;;7.30;5.72;;;19.20;76.30;;;18.42;100.00;96148.34;5015158;28;20029;-63
2022/08/25 00:41:04;;;;;;;7.50;6.25;;;19.20;76.30;;;18.39;100.00;96148.84;4981915;28;20478;-64
2022/08/25 00:43:40;;;;;;;8.48;5.82;;;19.20;76.30;;;18.36;100.00;96150.94;4983068;28;20038;-63
2022/08/25 00:46:08;;;;;;;7.10;6.00;;;19.20;76.40;;;18.34;100.00;96142.38;5023796;28;20263;-63
2022/08/25 00:48:35;;;;;;;6.47;5.85;;;19.20;76.50;;;18.32;100.00;96135.63;4989609;28;20040;-63
2022/08/25 00:51:01;;;;;;;6.72;5.97;;;19.10;76.50;;;18.29;100.00;96144.91;5016865;28;20038;-63
2022/08/25 00:53:28;;;;;;;8.52;6.15;;;19.10;76.70;;;18.24;100.00;96136.81;5021402;28;20033;-63
2022/08/25 00:55:54;;;;;;;7.90;6.30;;;19.00;76.90;;;18.23;100.00;96134.41;4996302;28;20030;-63
2022/08/25 00:58:23;;;;;;;7.53;6.22;;;19.00;77.10;;;18.19;100.00;96139.41;5009907;28;20091;-64
2022/08/25 01:00:51;;;;;;;7.80;6.55;;;19.00;77.20;;;18.17;100.00;96130.03;5006432;28;20381;-63
2022/08/25 01:03:18;;;;;;;9.85;6.32;;;19.00;77.10;;;18.16;100.00;96128.41;5001453;28;20048;-63
2022/08/25 01:05:44;;;;;;;7.65;5.85;;;19.10;76.90;;;18.13;100.00;96129.69;5018698;28;20122;-63
2022/08/25 01:08:09;;;;;;;7.97;6.35;;;19.00;77.00;;;18.12;100.00;96130.75;4991338;28;20578;-63
2022/08/25 01:10:37;;;;;;;8.00;6.72;;;19.00;77.10;;;18.09;100.00;96133.84;5005834;28;20029;-63
2022/08/25 01:13:19;;;;;;;6.88;6.18;;;19.00;77.20;;;18.06;100.00;96134.31;5019984;28;20033;-64
2022/08/25 01:15:45;;;;;;;8.40;6.38;;;18.90;77.30;;;18.03;100.00;96127.63;4989560;28;20029;-63
2022/08/25 01:18:11;;;;;;;9.13;6.60;;;18.80;77.40;;;18.00;100.00;96124.63;4996563;28;20081;-64
2022/08/25 01:20:37;;;;;;;10.50;6.95;;;18.80;77.40;;;17.97;100.00;96115.25;4977174;28;20529;-63
2022/08/25 01:23:03;;;;;;;7.13;6.32;;;18.80;77.50;;;17.94;100.00;96117.59;5003894;28;20674;-63
2022/08/25 01:25:56;;;;;;;7.72;6.40;;;18.80;77.50;;;17.93;100.00;96118.63;4990545;28;20042;-63
2022/08/25 01:28:21;;;;;;;8.80;6.28;;;18.80;77.50;;;17.87;100.00;96115.03;5000530;28;20042;-63
2022/08/25 01:30:48;;;;;;;7.95;6.75;;;18.70;77.60;;;17.85;100.00;96111.78;5020750;28;20114;-63
2022/08/25 01:33:16;;;;;;;11.40;6.45;;;18.60;77.80;;;17.83;100.00;96113.06;5021903;28;20041;-63
2022/08/25 01:35:42;;;;;;;7.82;6.82;;;18.70;77.80;;;17.80;100.00;96119.69;5018679;28;20068;-63
2022/08/25 01:38:08;;;;;;;7.63;6.22;;;18.60;77.80;;;17.81;100.00;96115.97;5020206;28;20053;-63
2022/08/25 01:40:35;;;;;;;8.13;6.47;;;18.60;77.80;;;17.79;100.00;96112.75;5024934;28;20150;-63
2022/08/25 01:43:36;;;;;;;7.20;5.95;;;18.70;77.80;;;17.80;100.00;96117.00;5007207;28;20030;-63
2022/08/25 01:46:02;;;;;;;7.30;6.30;;;18.70;77.50;;;17.77;100.00;96117.50;4987779;28;20510;-63
2022/08/25 01:48:28;;;;;;;8.27;6.57;;;18.60;77.50;;;17.75;100.00;96114.25;5021889;28;20166;-63
2022/08/25 01:50:54;;;;;;;8.93;6.65;;;18.60;77.60;;;17.72;100.00;96112.06;5019253;28;20068;-63
2022/08/25 01:53:27;;;;;;;9.30;7.43;;;18.60;77.70;;;17.69;100.00;96112.53;5021723;28;20088;-63
2022/08/25 01:55:54;;;;;;;8.80;6.68;;;18.50;78.10;;;17.65;100.00;96117.47;5021098;28;20042;-63
2022/08/25 01:58:26;;;;;;;8.25;7.35;;;18.60;78.40;;;17.62;100.00;96115.25;4985450;28;20050;-63
2022/08/25 02:00:55;;;;;;;9.38;6.78;;;18.50;78.00;;;17.58;100.00;96111.47;5004575;28;20037;-63
2022/08/25 02:03:23;;;;;;;8.35;6.57;;;18.40;77.90;;;17.55;100.00;96111.13;4973843;28;20382;-63
2022/08/25 02:05:48;;;;;;;8.07;6.95;;;18.50;78.00;;;17.52;100.00;96104.41;5002865;28;20578;-64
2022/08/25 02:08:14;;;;;;;9.43;6.70;;;18.40;78.30;;;17.53;100.00;96108.69;5002384;28;20081;-63
2022/08/25 02:10:40;;;;;;;8.07;7.28;;;18.40;78.50;;;17.53;100.00;96103.38;5011415;28;20059;-64
2022/08/25 02:13:06;;;;;;;9.23;7.63;;;18.50;78.70;;;17.53;100.00;96108.69;5035728;28;20049;-63
2022/08/25 02:15:32;;;;;;;8.88;6.97;;;18.40;79.00;;;17.54;100.00;96104.97;4968490;28;20029;-63
2022/08/25 02:17:57;;;;;;;11.23;8.35;;;18.50;79.10;;;17.53;100.00;96102.56;5019201;28;20032;-63
2022/08/25 02:20:24;;;;;;;9.45;7.57;;;18.50;79.40;;;17.54;100.00;96099.66;5008562;28;20462;-63
2022/08/25 02:22:50;;;;;;;10.35;8.40;;;18.50;79.60;;;17.54;100.00;96099.66;4970531;28;20034;-63
2022/08/25 02:25:17;;;;;;;9.77;7.80;;;18.50;79.90;;;17.54;100.00;96107.66;5007471;28;20393;-63
2022/08/25 02:27:43;;;;;;;12.75;8.70;;;18.50;80.10;;;17.55;100.00;96108.47;4993144;28;20034;-63
2022/08/25 02:30:09;;;;;;;12.38;7.95;;;18.50;80.20;;;17.55;100.00;96106.59;5005146;28;20068;-63
2022/08/25 02:32:35;;;;;;;9.00;8.05;;;18.50;80.20;;;17.57;100.00;96104.50;5011928;28;20026;-64
2022/08/25 02:35:01;;;;;;;10.43;8.10;;;18.60;80.10;;;17.58;100.00;96106.13;5001950;28;20064;-63
2022/08/25 02:37:27;;;;;;;10.02;8.02;;;18.60;80.10;;;17.57;100.00;96104.50;5024846;28;20033;-63
2022/08/25 02:39:53;;;;;;;8.82;7.43;;;18.50;80.20;;;17.57;100.00;96107.19;5020440;28;20025;-63
2022/08/25 02:42:20;;;;;;;9.20;7.93;;;18.60;80.30;;;17.57;100.00;96099.19;5017875;28;20092;-63
2022/08/25 02:44:46;;;;;;;10.68;8.27;;;18.60;80.20;;;17.57;100.00;96096.53;5005746;28;20066;-63
2022/08/25 02:47:12;;;;;;;11.02;8.68;;;18.60;80.40;;;17.56;100.00;96102.91;5005371;28;20041;-63
2022/08/25 02:49:38;;;;;;;10.18;8.43;;;18.60;80.40;;;17.56;100.00;96097.59;5023213;28;20038;-63
2022/08/25 02:52:04;;;;;;;13.35;8.85;;;18.60;80.50;;;17.57;100.00;96098.38;5025061;28;20472;-63
2022/08/25 02:54:29;;;;;;;10.88;8.02;;;18.50;80.50;;;17.58;100.00;96094.69;4991044;28;20524;-63
2022/08/25 02:56:55;;;;;;;9.55;8.23;;;18.60;80.40;;;17.57;100.00;96088.56;5001398;28;20505;-63
2022/08/25 02:59:21;;;;;;;13.13;9.02;;;18.60;80.40;;;17.58;100.00;96095.50;5002268;28;20096;-65
2022/08/25 03:01:47;;;;;;;10.05;8.65;;;18.60;80.30;;;17.58;100.00;96090.19;5023130;28;20049;-63
2022/08/25 03:04:13;;;;;;;11.65;8.35;;;18.60;80.40;;;17.56;100.00;96084.28;5007424;28;20057;-64
2022/08/25 03:06:39;;;;;;;11.63;8.77;;;18.60;80.40;;;17.55;100.00;96082.66;5000882;28;20125;-66
2022/08/25 03:09:05;;;;;;;11.80;8.45;;;18.60;80.40;;;17.54;100.00;96086.38;5012474;28;20038;-64
2022/08/25 03:11:31;;;;;;;10.45;8.70;;;18.60;80.50;;;17.55;100.00;96088.00;4986428;28;20030;-63
2022/08/25 03:13:57;;;;;;;9.95;8.05;;;18.60;80.40;;;17.57;100.00;96091.22;4994205;28;20523;-64
2022/08/25 03:16:23;;;;;;;10.48;8.35;;;18.60;80.30;;;17.56;100.00;96086.13;5023949;28;20133;-63
2022/08/25 03:18:49;;;;;;;9.85;8.30;;;18.60;80.20;;;17.56;100.00;96094.13;5012608;28;20022;-63
2022/08/25 03:21:15;;;;;;;9.98;8.40;;;18.60;80.10;;;17.57;100.00;96087.75;5007247;28;20113;-63
2022/08/25 03:23:40;;;;;;;12.80;8.57;;;18.60;80.00;;;17.55;100.00;96090.66;5022007;28;20018;-63
2022/08/25 03:28:51;;;;;;;11.23;7.90;;;18.60;79.80;;;17.54;100.00;96090.88;5005035;28;20041;-63
2022/08/25 03:31:17;;;;;;;10.07;8.55;;;18.60;79.70;;;17.54;100.00;96091.69;4996570;28;20038;-64
2022/08/25 03:33:43;;;;;;;10.15;8.32;;;18.60;79.70;;;17.53;100.00;96095.38;5018568;28;20052;-63
2022/08/25 03:36:11;;;;;;;9.68;7.95;;;18.50;79.60;;;17.49;100.00;96088.91;4995717;28;20132;-63
2022/08/25 03:38:37;;;;;;;9.73;8.25;;;18.50;79.60;;;17.48;100.00;96089.97;5028324;28;20614;-63
2022/08/25 03:41:15;;;;;;;10.65;8.27;;;18.50;79.60;;;17.48;100.00;96084.66;5024001;28;20037;-63
2022/08/25 03:43:41;;;;;;;11.75;8.70;;;18.50;79.60;;;17.47;100.00;96087.53;5018349;28;20187;-63
2022/08/25 03:46:08;;;;;;;10.80;8.57;;;18.40;79.50;;;17.44;100.00;96089.63;4994123;28;20038;-63
2022/08/25 03:48:34;;;;;;;10.00;8.43;;;18.40;79.50;;;17.42;100.00;96088.22;5018701;28;20045;-63
2022/08/25 03:51:00;;;;;;;10.10;8.73;;;18.40;79.50;;;17.42;100.00;96085.56;5019304;28;20046;-63
2022/08/25 03:53:25;;;;;;;10.48;8.70;;;18.40;79.40;;;17.38;100.00;96076.44;5026522;28;20057;-63
2022/08/25 03:55:51;;;;;;;10.55;8.35;;;18.30;79.30;;;17.36;100.00;96081.16;5042370;28;20087;-63
2022/08/25 03:58:17;;;;;;;10.25;8.40;;;18.30;79.30;;;17.33;100.00;96077.13;4996485;28;20034;-63
2022/08/25 04:00:43;;;;;;;11.20;9.23;;;18.30;79.30;;;17.31;100.00;96078.41;5022759;28;20103;-63
2022/08/25 04:03:09;;;;;;;9.95;8.48;;;18.30;79.30;;;17.28;100.00;96078.88;5027795;28;20057;-63
2022/08/25 04:05:35;;;;;;;13.55;8.95;;;18.20;79.60;;;17.25;100.00;96072.16;5010056;28;20033;-63
2022/08/25 04:08:00;;;;;;;12.43;9.45;;;18.20;79.90;;;17.23;100.00;96073.44;5005748;28;20068;-63
2022/08/25 04:10:26;;;;;;;12.15;9.45;;;18.20;80.10;;;17.22;100.00;96079.81;5024969;28;20034;-63
2022/08/25 04:12:52;;;;;;;10.15;9.02;;;18.20;80.10;;;17.21;100.00;96083.50;5021043;28;20030;-67
2022/08/25 04:15:18;;;;;;;12.50;9.48;;;18.20;80.30;;;17.20;100.00;96084.50;5026719;28;20120;-66
2022/08/25 04:17:44;;;;;;;11.52;8.95;;;18.10;80.30;;;17.18;100.00;96084.75;5022505;28;20136;-66
2022/08/25 04:20:10;;;;;;;11.43;9.13;;;18.10;80.10;;;17.17;100.00;96087.63;5010370;28;20480;-65
2022/08/25 04:22:36;;;;;;;11.07;8.85;;;18.10;80.00;;;17.14;100.00;96088.91;5027195;28;20033;-68
2022/08/25 04:25:03;;;;;;;11.30;8.98;;;18.10;79.90;;;17.11;100.00;96090.19;5014395;28;20072;-68
2022/08/25 04:27:29;;;;;;;10.93;9.10;;;18.10;79.90;;;17.08;100.00;96090.66;5029094;28;20064;-69
2022/08/25 04:29:55;;;;;;;10.57;8.40;;;18.10;79.80;;;17.07;100.00;96091.69;5013129;28;20025;-68
2022/08/25 04:32:21;;;;;;;12.80;9.13;;;18.10;79.80;;;17.07;100.00;96082.91;5010303;28;20044;-68
2022/08/25 04:34:47;;;;;;;10.80;9.13;;;18.10;79.70;;;17.06;100.00;96090.06;4988324;28;20037;-68
2022/08/25 04:37:13;;;;;;;11.00;9.20;;;18.10;79.80;;;17.05;100.00;96085.78;5028470;28;20056;-68
2022/08/25 04:39:39;;;;;;;10.95;9.15;;;18.10;79.80;;;17.05;100.00;96091.09;5029367;28;20053;-68
2022/08/25 04:42:05;;;;;;;11.95;9.23;;;18.10;79.90;;;17.04;100.00;96092.16;5030076;28;20103;-68
2022/08/25 04:44:31;;;;;;;10.63;9.15;;;18.10;80.10;;;17.03;100.00;96093.19;5028779;28;20061;-68
2022/08/25 04:46:57;;;;;;;11.48;9.45;;;18.10;80.00;;;17.02;100.00;96080.94;5029782;28;20323;-68
2022/08/25 04:49:23;;;;;;;10.13;8.88;;;18.10;80.00;;;17.01;100.00;96087.28;5029148;28;20064;-67
2022/08/25 04:51:48;;;;;;;13.20;9.93;;;18.10;80.00;;;17.00;100.00;96091.00;5029868;28;20157;-68
2022/08/25 04:54:21;;;;;;;12.85;10.00;;;18.10;80.10;;;17.00;100.00;96083.03;5026256;28;20410;-68
2022/08/25 04:56:48;;;;;;;13.55;9.48;;;18.10;80.30;;;16.99;100.00;96081.41;5029930;28;20108;-68
2022/08/25 04:59:14;;;;;;;10.77;9.32;;;18.10;80.50;;;17.00;100.00;96083.03;5029344;28;20037;-69
2022/08/25 05:01:41;;;;;;;13.77;10.05;;;18.10;80.80;;;17.02;100.00;96086.25;5029427;28;20079;-68
2022/08/25 05:04:08;;;;;;;13.60;10.40;;;18.10;80.90;;;17.03;100.00;96092.38;5005227;28;20030;-68
2022/08/25 05:06:34;;;;;;;11.52;10.30;;;18.10;81.00;;;17.04;100.00;96081.50;5029415;28;20535;-69
2022/08/25 05:09:00;;;;;;;13.77;10.50;;;18.10;81.00;;;17.04;100.00;96086.84;5029153;28;20041;-68
2022/08/25 05:11:26;;;;;;;13.43;10.90;;;18.20;81.10;;;17.06;100.00;96084.75;5008910;28;20038;-68
2022/08/25 05:13:53;;;;;;;15.35;11.15;;;18.20;81.20;;;17.09;100.00;96081.63;4999113;28;20040;-68
2022/08/25 05:16:20;;;;;;;14.30;11.00;;;18.30;81.30;;;17.09;100.00;96081.63;5009074;28;20136;-68
2022/08/25 05:18:46;;;;;;;14.25;10.32;;;18.30;81.50;;;17.14;100.00;96078.28;5012673;28;20053;-68
2022/08/25 05:21:14;;;;;;;11.88;9.68;;;18.40;81.50;;;17.19;100.00;96074.91;5042423;28;20390;-70
2022/08/25 05:23:40;;;;;;;14.40;10.63;;;18.50;81.30;;;17.24;100.00;96081.19;4988096;28;20037;-68
2022/08/25 05:26:18;;;;;;;13.88;10.90;;;18.50;81.40;;;17.28;100.00;96077.03;5021849;28;20255;-68
2022/08/25 05:28:43;;;;;;;14.65;10.50;;;18.60;81.50;;;17.34;100.00;96072.63;5005059;28;20112;-69
2022/08/25 05:31:11;;;;;;;12.63;10.23;;;18.60;81.30;;;17.40;100.00;96069.03;5012648;28;20126;-68
2022/08/25 05:33:37;;;;;;;13.25;10.07;;;18.60;81.10;;;17.46;100.00;96070.78;5027608;28;20072;-68
2022/08/25 05:36:03;;;;;;;12.55;10.20;;;18.70;81.10;;;17.52;100.00;96079.66;5028762;28;20045;-68
2022/08/25 05:38:29;;;;;;;13.82;11.00;;;18.80;80.80;;;17.57;100.00;96075.25;5012241;28;20546;-68
2022/08/25 05:41:04;;;;;;;12.32;10.77;;;18.90;80.70;;;17.65;100.00;96074.91;5028941;28;20046;-68
2022/08/25 05:43:30;;;;;;;13.48;10.63;;;19.10;80.50;;;17.72;100.00;96075.63;5027129;28;20052;-68
2022/08/25 05:45:56;;;;;;;12.68;10.57;;;19.10;80.10;;;17.82;100.00;96079.53;5025265;28;20125;-68
2022/08/25 05:48:22;;;;;;;14.85;10.65;;;19.20;79.90;;;17.89;100.00;96082.88;5010385;28;20033;-68
2022/08/25 05:50:52;;;;;;;13.00;10.68;;;19.30;79.80;;;17.99;100.00;96080.41;5012397;28;20025;-68
2022/08/25 05:53:18;;;;;;;13.30;11.05;;;19.40;79.20;;;18.06;100.00;96073.09;5010462;28;20045;-68
2022/08/25 05:55:44;;;;;;;15.18;10.85;;;19.50;78.90;;;18.13;100.00;96076.44;5008686;28;20058;-68
2022/08/25 05:58:10;;;;;;;13.48;10.73;;;19.60;78.60;;;18.21;100.00;96081.38;5008628;28;20585;-68
2022/08/25 06:00:37;;;;;;;13.07;10.35;;;19.70;78.40;;;18.31;100.00;96084.22;4992735;28;20042;-69
2022/08/25 06:03:03;;;;;;;13.93;10.73;;;19.80;78.20;;;18.42;100.00;96084.44;5006790;28;20426;-69
2022/08/25 06:05:29;;;;;;;12.18;9.95;;;19.80;78.10;;;18.49;100.00;96075.25;4985765;28;20026;-68
2022/08/25 06:07:55;;;;;;;13.90;10.80;;;20.00;77.70;;;18.55;100.00;96074.28;5005227;28;20030;-68
2022/08/25 06:10:21;;;;;;;14.82;10.45;;;20.10;77.20;;;18.63;100.00;96081.94;4997325;28;20394;-69
2022/08/25 06:12:47;;;;;;;12.38;10.55;;;20.10;77.10;;;18.72;100.00;96079.69;5011436;28;20036;-68
2022/08/25 06:15:15;;;;;;;13.02;10.70;;;20.20;76.90;;;18.81;100.00;96075.59;5025419;28;20042;-69
2022/08/25 06:17:41;;;;;;;12.77;11.20;;;20.30;76.30;;;18.85;100.00;96066.06;5027095;28;20120;-70
2022/08/25 06:20:29;;;;;;;12.63;10.27;;;20.40;76.20;;;18.94;100.00;96056.59;5008358;28;20445;-68
2022/08/25 06:22:56;;;;;;;13.20;10.68;;;20.50;76.00;;;19.03;100.00;96066.88;5009163;28;20030;-68
2022/08/25 06:25:23;;;;;;;15.05;10.93;;;20.60;75.70;;;19.09;100.00;96068.56;5022671;28;20034;-68
2022/08/25 06:27:49;;;;;;;13.75;10.77;;;20.60;75.70;;;19.17;100.00;96060.13;5015258;28;20025;-68
2022/08/25 06:30:18;;;;;;;12.25;10.32;;;20.60;75.30;;;19.22;100.00;96060.22;5014158;28;20036;-68
2022/08/25 06:32:44;;;;;;;13.07;10.90;;;20.70;75.50;;;19.26;100.00;96062.16;5025326;28;20037;-68
2022/08/25 06:35:12;;;;;;;14.95;10.82;;;20.80;75.30;;;19.33;100.00;96062.00;5032384;28;20143;-68
2022/08/25 06:37:38;;;;;;;14.52;11.05;;;20.70;74.90;;;19.36;100.00;96058.84;5015251;28;20037;-68
2022/08/25 06:40:05;;;;;;;13.10;10.45;;;20.80;75.00;;;19.42;100.00;96065.84;5031274;28;20033;-68
2022/08/25 06:42:31;;;;;;;13.77;10.40;;;20.90;75.40;;;19.48;100.00;96062.22;5021802;28;20116;-68
2022/08/25 06:44:57;;;;;;;17.15;10.68;;;20.90;75.00;;;19.53;100.00;96061.47;5032061;28;20033;-68
2022/08/25 06:47:22;;;;;;;12.55;10.95;;;20.90;75.10;;;19.56;100.00;96069.81;5015117;28;20036;-72
2022/08/25 06:49:48;;;;;;;13.68;10.40;;;20.90;75.20;;;19.61;100.00;96065.59;5012670;28;20026;-68
2022/08/25 06:52:14;;;;;;;16.35;10.32;;;21.00;75.00;;;19.67;100.00;96070.75;5020336;28;20381;-68
2022/08/25 06:54:40;;;;;;;12.52;9.68;;;21.10;75.00;;;19.73;100.00;96077.00;5012332;28;20532;-68
2022/08/25 06:57:06;;;;;;;16.27;10.25;;;21.10;74.90;;;19.78;100.00;96077.06;5012046;28;20547;-68
2022/08/25 06:59:33;;;;;;;11.55;9.15;;;21.30;74.50;;;19.86;100.00;96084.63;4994936;28;20398;-68
2022/08/25 07:02:00;;;;;;;13.27;10.18;;;21.40;74.80;;;19.94;100.00;96086.88;5011727;28;20382;-68
2022/08/25 07:04:25;;;;;;;10.35;8.75;;;21.50;74.40;;;20.01;100.00;96076.81;5010633;28;20434;-68
2022/08/25 07:06:51;;;;;;;11.50;9.80;;;21.60;73.80;;;20.09;100.00;96079.03;4976229;28;20042;-69
2022/08/25 07:09:17;;;;;;;10.10;9.00;;;21.60;73.10;;;20.17;100.00;96072.47;4992120;28;20113;-69
2022/08/25 07:11:43;;;;;;;11.90;9.10;;;21.70;72.90;;;20.26;100.00;96073.63;4984874;28;20052;-68
2022/08/25 07:14:11;;;;;;;9.93;8.30;;;21.80;72.70;;;20.37;100.00;96071.88;5013515;28;20041;-68
2022/08/25 07:16:37;;;;;;;9.60;7.68;;;22.00;73.20;;;20.50;100.00;96066.16;5027075;28;20026;-69
2022/08/25 07:19:03;;;;;;;13.25;8.20;;;22.20;71.80;;;20.65;100.00;96065.50;5010893;28;20026;-68
2022/08/25 07:21:31;;;;;;;12.70;8.25;;;22.40;70.90;;;20.76;100.00;96068.00;4997249;28;20037;-68
2022/08/25 07:23:59;;;;;;;10.60;8.60;;;22.40;70.30;;;20.86;100.00;96066.50;5032822;28;20095;-68
2022/08/25 07:26:27;;;;;;;9.35;7.45;;;22.60;70.10;;;21.04;100.00;96066.09;5031393;28;20474;-68
2022/08/25 07:28:54;;;;;;;10.05;7.63;;;22.90;69.40;;;21.24;100.00;96068.16;5030923;28;20034;-68
2022/08/25 07:31:19;;;;;;;14.15;8.23;;;23.10;68.50;;;21.42;99.94;96064.25;5030351;28;20040;-68
2022/08/25 07:36:30;;;;;;;9.20;7.70;;;23.60;67.60;;;21.79;97.67;96065.03;5017546;28;20538;-68
2022/08/25 07:38:57;;;;;;;9.00;7.20;;;23.90;65.60;;;21.99;97.29;96065.13;5030876;28;20034;-68
2022/08/25 07:41:23;;;;;;;12.75;7.63;;;24.10;65.30;;;22.19;96.23;96068.97;5002671;28;20489;-68
2022/08/25 07:43:49;;;;;;;11.23;8.38;;;24.40;64.20;;;22.39;94.81;96066.31;5011245;28;20041;-69
2022/08/25 07:46:15;;;;;;;8.40;7.15;;;24.60;62.50;;;22.56;93.41;96061.53;4994888;28;20413;-68
2022/08/25 07:48:41;;;;;;;9.40;7.50;;;24.80;62.40;;;22.78;92.47;96066.69;4998059;28;20578;-68
2022/08/25 07:51:08;;;;;;;8.82;6.85;;;25.10;61.40;;;22.96;91.34;96060.00;5030834;28;20041;-68
2022/08/25 07:53:34;;;;;;;10.05;7.20;;;25.40;61.20;;;23.14;90.38;96064.84;5010809;28;20040;-68
2022/08/25 07:56:00;;;;;;;9.57;7.18;;;25.40;60.10;;;23.36;89.82;96067.25;4994751;28;20406;-68
2022/08/25 07:58:27;;;;;;;8.80;7.20;;;25.70;59.90;;;23.55;88.31;96064.81;4995393;28;20108;-68
2022/08/25 08:00:53;;;;;;;9.07;7.35;;;26.00;58.70;;;23.74;87.71;96056.97;5023163;28;20067;-68
2022/08/25 08:03:19;;;;;;;7.85;6.75;;;26.20;58.30;;;23.96;87.20;96059.31;5027326;28;20425;-68
2022/08/25 08:05:45;;;;;;;8.38;6.75;;;26.40;58.20;;;24.18;86.75;96057.09;4978029;28;20042;-68
2022/08/25 08:08:11;;;;;;;10.00;6.97;;;26.70;58.00;;;24.40;85.81;96059.41;4994448;28;20037;-69
2022/08/25 08:10:41;;;;;;;9.55;6.47;;;27.00;56.80;;;24.59;83.90;96056.91;5012068;28;20030;-69
2022/08/25 08:13:07;;;;;;;12.27;7.55;;;27.10;57.20;;;24.80;84.20;96068.31;5024829;28;20033;-69
2022/08/25 08:15:33;;;;;;;11.52;7.05;;;27.40;55.20;;;24.97;82.65;96064.16;5026808;28;20042;-68
2022/08/25 08:17:59;;;;;;;10.50;6.20;;;27.60;54.30;;;25.16;82.23;96067.00;4977813;28;20022;-68
2022/08/25 08:20:25;;;;;;;10.77;7.20;;;27.90;54.30;;;25.34;80.86;96052.81;5016496;28;20186;-69
2022/08/25 08:22:50;;;;;;;8.27;6.40;;;28.10;53.30;;;25.51;79.95;96052.41;5019170;28;20026;-69
2022/08/25 08:25:16;;;;;;;7.53;6.18;;;28.30;52.70;;;25.70;79.14;96057.09;4991120;28;20034;-69
2022/08/25 08:27:44;;;;;;;6.88;5.90;;;28.50;52.10;;;25.87;78.22;96060.16;4976726;28;20027;-69
2022/08/25 08:30:10;;;;;;;8.55;5.72;;;28.70;51.70;;;26.07;76.71;96059.91;5007990;28;20445;-69
2022/08/25 08:32:36;;;;;;;7.68;5.38;;;29.00;50.50;;;26.29;76.40;96050.47;5030220;28;20041;-68
2022/08/25 08:35:04;;;;;;;7.22;5.72;;;29.30;50.10;;;26.50;75.82;96059.94;5029926;28;20037;-68
2022/08/25 08:37:30;;;;;;;7.18;5.22;;;29.60;49.80;;;26.75;74.97;96056.06;5029720;28;20405;-69
2022/08/25 08:39:56;;;;;;;6.93;5.47;;;29.80;49.00;;;26.96;74.01;96054.66;5027839;28;20042;-68
2022/08/25 08:43:02;;;;;;;8.52;5.63;;;30.10;48.50;;;27.24;70.21;96043.97;5034711;28;20036;-68
2022/08/25 08:45:36;;;;;;;7.85;5.97;;;30.30;47.50;;;27.43;68.82;96042.81;5029233;28;20034;-69
2022/08/25 08:48:25;;;;;;;7.57;5.57;;;30.60;46.70;;;27.67;67.06;96047.28;5029404;28;20037;-68
2022/08/25 08:51:34;;;;;;;7.75;5.53;;;30.80;45.60;;;27.87;65.61;96030.69;5028749;28;20060;-68
2022/08/25 08:54:07;;;;;;;9.80;6.10;;;30.90;45.40;;;28.04;66.22;96030.84;5032057;28;20132;-68
2022/08/25 08:56:41;;;;;;;9.63;4.93;;;31.10;44.90;;;28.25;65.11;96030.47;5015075;28;20101;-68
2022/08/25 08:59:20;;;;;;;6.45;5.03;;;31.40;44.30;;;28.53;65.47;96031.22;5029510;28;20034;-68
2022/08/25 09:02:00;;;;;;;6.57;5.28;;;31.70;45.20;;;28.74;63.94;96029.63;5021642;28;20025;-68
2022/08/25 09:04:43;;;;;;;6.72;5.38;;;31.80;43.80;;;28.93;63.86;96024.06;5025667;28;20536;-68
2022/08/25 09:07:18;;;;;;;10.15;5.45;;;32.00;44.40;;;29.12;62.74;96015.75;4995793;28;20045;-69
2022/08/25 09:09:44;;;;;;;6.03;5.32;;;32.10;43.30;;;29.28;64.98;96022.41;4993522;28;20045;-68
2022/08/25 09:12:39;;;;;;;7.65;5.80;;;32.30;43.60;;;29.50;60.96;96013.47;5021242;28;20057;-68
2022/08/25 09:19:07;;;;;;;5.43;4.65;;;32.70;42.30;;;29.96;59.61;96006.78;5017998;28;20393;-68
2022/08/25 09:21:38;;;;;;;;;;;32.90;42.30;;;30.14;58.45;95997.59;5014322;28;20069;-68
2022/08/25 09:24:43;;;;;;;6.90;5.45;;;33.10;41.20;;;30.36;58.30;96011.06;5012544;28;19917;-68
2022/08/25 09:27:32;;;;;;;6.72;3.75;;;33.40;41.20;;;30.57;58.40;96010.44;4995052;28;20038;-69
2022/08/25 09:30:09;;;;;;;9.65;5.85;;;33.60;40.90;;;30.75;56.52;96003.88;4979965;28;20454;-68
2022/08/25 09:32:46;;;;;;;6.53;5.63;;;33.80;40.00;;;30.88;56.53;96000.22;5006915;28;20470;-68
2022/08/25 09:35:25;;;;;;;7.75;4.60;;;34.00;39.80;;;31.12;55.24;96007.06;4994887;28;20042;-68
2022/08/25 09:38:03;;;;;;;10.77;5.10;;;34.30;38.70;;;31.35;54.42;96003.84;5012259;28;20030;-68
2022/08/25 09:40:32;;;;;;;6.07;5.25;;;34.60;38.90;;;31.60;55.43;96004.88;5002004;28;20506;-68
2022/08/25 09:43:00;;;;;;;6.00;4.40;;;34.90;37.70;;;31.87;55.36;96008.31;5025540;28;20120;-68
2022/08/25 09:45:42;;;;;;;6.22;4.82;;;35.30;37.70;;;32.20;51.86;95998.38;4976636;28;20074;-68
2022/08/25 09:48:36;;;;;;;14.13;5.28;;;35.60;36.90;;;32.44;49.60;95999.69;4993292;28;20072;-68
2022/08/25 09:51:24;;;;;;;6.32;4.82;;;35.70;35.90;;;32.61;49.54;95994.13;5013843;28;20026;-68
2022/08/25 09:53:55;;;;;;;7.60;5.10;;;36.00;35.50;;;32.68;49.91;95994.38;5024011;28;20037;-68
2022/08/25 09:56:23;;;;;;;8.38;4.53;;;36.10;35.20;;;32.89;50.95;95989.72;5015372;28;20029;-69
2022/08/25 09:58:49;;;;;;;6.80;5.07;;;36.60;35.30;;;33.05;50.40;95986.38;4992996;28;20100;-68
2022/08/25 10:01:20;;;;;;;5.95;4.93;;;36.70;34.40;;;33.20;48.91;95983.78;5000732;28;20030;-68
2022/08/25 10:04:04;;;;;;;8.43;5.60;;;37.10;34.90;;;33.37;47.40;95984.78;5011767;28;20033;-69
2022/08/25 10:06:43;;;;;;;8.43;5.18;;;37.40;34.30;;;33.54;47.41;95981.84;5012354;28;20033;-69
2022/08/25 10:09:10;;;;;;;7.70;4.93;;;37.70;33.70;;;33.72;49.20;95982.41;5011091;28;20042;-69
2022/08/25 10:11:43;;;;;;;7.47;5.38;;;38.20;33.10;;;33.94;47.27;95979.28;5020059;28;20033;-68
2022/08/25 10:14:20;;;;;;;6.03;4.93;;;38.60;32.60;;;34.05;46.10;95969.50;5017739;28;20518;-69
2022/08/25 10:16:47;;;;;;;5.68;5.10;;;38.70;32.00;;;34.20;48.27;95980.88;5018592;28;20448;-69
2022/08/25 10:19:27;;;;;;;8.48;5.47;;;39.00;31.70;;;34.34;45.87;95970.34;4992378;28;20537;-69
2022/08/25 10:22:31;;;;;;;8.50;5.35;;;39.40;31.10;;;34.62;46.29;95965.75;4994542;28;20346;-69
2022/08/25 10:24:59;;;;;;;7.05;5.28;;;40.00;31.40;;;34.89;45.79;95966.16;5011991;28;20087;-69
2022/08/25 10:28:11;;;;;;;7.03;5.15;;;40.40;30.20;;;35.13;44.34;95960.56;5027771;28;20488;-68